sensor_id;sensor_type;location;lat;lon;timestamp;P1;durP1;ratioP1;P2;durP2;ratioP2
12122;SDS011;6125;59.628;17.852;2023-03-14T00:01:57;5.73;;;1.83;;
12122;SDS011;6125;59.628;17.852;2023-03-14T00:04:24;3.20;;;1.40;;
12122;SDS011;6125;59.628;17.852;2023-03-14T00:06:51;2.67;;;1.40;;
12122;SDS011;6125;59.628;17.852;2023-03-14T00:09:19;2.80;;;1.30;;
12122;SDS011;6125;59.628;17.852;2023-03-14T00:11:47;5.47;;;1.60;;
12122;SDS011;6125;59.628;17.852;2023-03-14T00:14:14;2.13;;;1.40;;
12122;SDS011;6125;59.628;17.852;2023-03-14T00:16:41;2.83;;;1.50;;
12122;SDS011;6125;59.628;17.852;2023-03-14T00:19:11;4.93;;;1.47;;
12122;SDS011;6125;59.628;17.852;2023-03-14T00:21:38;2.53;;;1.30;;
12122;SDS011;6125;59.628;17.852;2023-03-14T00:24:06;2.33;;;1.30;;
12122;SDS011;6125;59.628;17.852;2023-03-14T00:26:35;3.17;;;1.50;;
12122;SDS011;6125;59.628;17.852;2023-03-14T00:29:02;2.37;;;1.10;;
12122;SDS011;6125;59.628;17.852;2023-03-14T00:31:29;5.73;;;1.50;;
12122;SDS011;6125;59.628;17.852;2023-03-14T00:33:56;1.70;;;1.07;;
12122;SDS011;6125;59.628;17.852;2023-03-14T00:36:23;5.00;;;1.60;;
12122;SDS011;6125;59.628;17.852;2023-03-14T00:38:51;4.93;;;1.30;;
12122;SDS011;6125;59.628;17.852;2023-03-14T00:41:18;4.80;;;1.20;;
12122;SDS011;6125;59.628;17.852;2023-03-14T00:43:49;2.77;;;1.20;;
12122;SDS011;6125;59.628;17.852;2023-03-14T00:46:16;3.00;;;1.43;;
12122;SDS011;6125;59.628;17.852;2023-03-14T00:48:44;2.07;;;1.13;;
12122;SDS011;6125;59.628;17.852;2023-03-14T00:51:11;3.80;;;1.00;;
12122;SDS011;6125;59.628;17.852;2023-03-14T00:53:40;2.43;;;1.17;;
12122;SDS011;6125;59.628;17.852;2023-03-14T00:56:09;5.23;;;1.20;;
12122;SDS011;6125;59.628;17.852;2023-03-14T00:58:37;2.87;;;1.10;;
12122;SDS011;6125;59.628;17.852;2023-03-14T01:01:07;3.33;;;0.80;;
12122;SDS011;6125;59.628;17.852;2023-03-14T01:03:35;3.47;;;1.40;;
12122;SDS011;6125;59.628;17.852;2023-03-14T01:06:09;5.20;;;1.30;;
12122;SDS011;6125;59.628;17.852;2023-03-14T01:08:38;5.37;;;1.20;;
12122;SDS011;6125;59.628;17.852;2023-03-14T01:11:06;2.27;;;1.20;;
12122;SDS011;6125;59.628;17.852;2023-03-14T01:13:34;3.10;;;1.30;;
12122;SDS011;6125;59.628;17.852;2023-03-14T01:16:03;4.13;;;1.30;;
12122;SDS011;6125;59.628;17.852;2023-03-14T01:18:33;1.63;;;1.10;;
12122;SDS011;6125;59.628;17.852;2023-03-14T01:21:01;1.90;;;1.03;;
12122;SDS011;6125;59.628;17.852;2023-03-14T01:23:28;1.37;;;1.00;;
12122;SDS011;6125;59.628;17.852;2023-03-14T01:25:55;2.00;;;1.00;;
12122;SDS011;6125;59.628;17.852;2023-03-14T01:28:22;2.53;;;1.10;;
12122;SDS011;6125;59.628;17.852;2023-03-14T01:30:49;3.83;;;1.40;;
12122;SDS011;6125;59.628;17.852;2023-03-14T01:33:16;2.17;;;1.03;;
12122;SDS011;6125;59.628;17.852;2023-03-14T01:35:44;1.70;;;1.03;;
12122;SDS011;6125;59.628;17.852;2023-03-14T01:38:11;4.03;;;1.50;;
12122;SDS011;6125;59.628;17.852;2023-03-14T01:40:42;1.97;;;1.20;;
12122;SDS011;6125;59.628;17.852;2023-03-14T01:43:13;2.80;;;1.30;;
12122;SDS011;6125;59.628;17.852;2023-03-14T01:48:46;1.33;;;0.90;;
12122;SDS011;6125;59.628;17.852;2023-03-14T01:51:20;1.03;;;0.90;;
12122;SDS011;6125;59.628;17.852;2023-03-14T01:53:51;2.00;;;1.10;;
12122;SDS011;6125;59.628;17.852;2023-03-14T01:56:20;1.80;;;1.20;;
12122;SDS011;6125;59.628;17.852;2023-03-14T01:58:49;1.90;;;1.20;;
12122;SDS011;6125;59.628;17.852;2023-03-14T02:01:19;2.67;;;1.23;;
12122;SDS011;6125;59.628;17.852;2023-03-14T02:03:50;2.23;;;1.20;;
12122;SDS011;6125;59.628;17.852;2023-03-14T02:06:23;2.50;;;0.93;;
12122;SDS011;6125;59.628;17.852;2023-03-14T02:08:52;2.97;;;1.97;;
12122;SDS011;6125;59.628;17.852;2023-03-14T02:11:20;2.27;;;1.53;;
12122;SDS011;6125;59.628;17.852;2023-03-14T02:13:48;7.93;;;1.10;;
12122;SDS011;6125;59.628;17.852;2023-03-14T02:16:15;0.80;;;0.80;;
12122;SDS011;6125;59.628;17.852;2023-03-14T02:18:42;6.00;;;1.40;;
12122;SDS011;6125;59.628;17.852;2023-03-14T02:21:12;1.50;;;0.90;;
12122;SDS011;6125;59.628;17.852;2023-03-14T02:23:51;2.13;;;0.90;;
12122;SDS011;6125;59.628;17.852;2023-03-14T02:26:25;2.70;;;1.10;;
12122;SDS011;6125;59.628;17.852;2023-03-14T02:28:59;5.33;;;1.20;;
12122;SDS011;6125;59.628;17.852;2023-03-14T02:31:26;1.40;;;1.00;;
12122;SDS011;6125;59.628;17.852;2023-03-14T02:33:53;4.37;;;1.10;;
12122;SDS011;6125;59.628;17.852;2023-03-14T02:36:22;2.43;;;1.20;;
12122;SDS011;6125;59.628;17.852;2023-03-14T02:38:51;4.20;;;1.20;;
12122;SDS011;6125;59.628;17.852;2023-03-14T02:41:24;1.30;;;1.10;;
12122;SDS011;6125;59.628;17.852;2023-03-14T02:43:51;2.30;;;1.03;;
12122;SDS011;6125;59.628;17.852;2023-03-14T02:46:20;3.20;;;1.43;;
12122;SDS011;6125;59.628;17.852;2023-03-14T02:48:48;1.20;;;1.10;;
12122;SDS011;6125;59.628;17.852;2023-03-14T02:51:17;2.10;;;0.90;;
12122;SDS011;6125;59.628;17.852;2023-03-14T02:53:45;2.27;;;1.13;;
12122;SDS011;6125;59.628;17.852;2023-03-14T02:56:12;4.77;;;1.07;;
12122;SDS011;6125;59.628;17.852;2023-03-14T02:58:39;1.20;;;0.80;;
12122;SDS011;6125;59.628;17.852;2023-03-14T03:01:06;0.97;;;0.73;;
12122;SDS011;6125;59.628;17.852;2023-03-14T03:03:35;3.10;;;1.50;;
12122;SDS011;6125;59.628;17.852;2023-03-14T03:06:02;1.17;;;1.07;;
12122;SDS011;6125;59.628;17.852;2023-03-14T03:08:29;2.20;;;0.70;;
12122;SDS011;6125;59.628;17.852;2023-03-14T03:10:58;2.40;;;0.70;;
12122;SDS011;6125;59.628;17.852;2023-03-14T03:13:25;0.70;;;0.70;;
12122;SDS011;6125;59.628;17.852;2023-03-14T03:15:52;3.57;;;0.97;;
12122;SDS011;6125;59.628;17.852;2023-03-14T03:18:19;2.93;;;1.07;;
12122;SDS011;6125;59.628;17.852;2023-03-14T03:20:48;2.10;;;0.73;;
12122;SDS011;6125;59.628;17.852;2023-03-14T03:23:15;3.13;;;1.07;;
12122;SDS011;6125;59.628;17.852;2023-03-14T03:25:47;1.20;;;1.03;;
12122;SDS011;6125;59.628;17.852;2023-03-14T03:28:15;3.87;;;0.70;;
12122;SDS011;6125;59.628;17.852;2023-03-14T03:30:42;1.80;;;1.13;;
12122;SDS011;6125;59.628;17.852;2023-03-14T03:33:10;3.27;;;0.90;;
12122;SDS011;6125;59.628;17.852;2023-03-14T03:35:44;1.47;;;0.80;;
12122;SDS011;6125;59.628;17.852;2023-03-14T03:38:13;3.17;;;0.90;;
12122;SDS011;6125;59.628;17.852;2023-03-14T03:40:40;1.47;;;0.80;;
12122;SDS011;6125;59.628;17.852;2023-03-14T03:43:08;0.90;;;0.90;;
12122;SDS011;6125;59.628;17.852;2023-03-14T03:45:35;2.13;;;0.90;;
12122;SDS011;6125;59.628;17.852;2023-03-14T03:48:02;4.23;;;1.50;;
12122;SDS011;6125;59.628;17.852;2023-03-14T03:50:29;5.07;;;1.33;;
12122;SDS011;6125;59.628;17.852;2023-03-14T03:52:56;3.20;;;1.30;;
12122;SDS011;6125;59.628;17.852;2023-03-14T03:55:25;3.67;;;1.30;;
12122;SDS011;6125;59.628;17.852;2023-03-14T03:57:53;8.00;;;1.50;;
12122;SDS011;6125;59.628;17.852;2023-03-14T04:00:20;3.27;;;1.70;;
12122;SDS011;6125;59.628;17.852;2023-03-14T04:02:47;4.80;;;1.97;;
12122;SDS011;6125;59.628;17.852;2023-03-14T04:05:14;2.00;;;1.37;;
12122;SDS011;6125;59.628;17.852;2023-03-14T04:07:41;3.47;;;1.30;;
12122;SDS011;6125;59.628;17.852;2023-03-14T04:10:09;5.87;;;1.43;;
12122;SDS011;6125;59.628;17.852;2023-03-14T04:12:38;6.17;;;1.63;;
12122;SDS011;6125;59.628;17.852;2023-03-14T04:15:05;7.93;;;2.07;;
12122;SDS011;6125;59.628;17.852;2023-03-14T04:17:33;5.90;;;1.43;;
12122;SDS011;6125;59.628;17.852;2023-03-14T04:20:00;8.47;;;2.23;;
12122;SDS011;6125;59.628;17.852;2023-03-14T04:22:28;7.13;;;1.80;;
12122;SDS011;6125;59.628;17.852;2023-03-14T04:24:55;7.20;;;1.80;;
12122;SDS011;6125;59.628;17.852;2023-03-14T04:27:22;5.67;;;1.70;;
12122;SDS011;6125;59.628;17.852;2023-03-14T04:29:50;7.53;;;2.70;;
12122;SDS011;6125;59.628;17.852;2023-03-14T04:32:17;7.30;;;2.50;;
12122;SDS011;6125;59.628;17.852;2023-03-14T04:34:44;6.90;;;1.73;;
12122;SDS011;6125;59.628;17.852;2023-03-14T04:37:11;4.33;;;1.57;;
12122;SDS011;6125;59.628;17.852;2023-03-14T04:39:38;9.57;;;1.67;;
12122;SDS011;6125;59.628;17.852;2023-03-14T04:42:05;9.00;;;2.07;;
12122;SDS011;6125;59.628;17.852;2023-03-14T04:44:32;2.63;;;1.67;;
12122;SDS011;6125;59.628;17.852;2023-03-14T04:47:01;9.83;;;2.00;;
12122;SDS011;6125;59.628;17.852;2023-03-14T04:49:28;6.93;;;2.00;;
12122;SDS011;6125;59.628;17.852;2023-03-14T04:51:55;3.40;;;1.63;;
12122;SDS011;6125;59.628;17.852;2023-03-14T04:54:22;6.00;;;1.80;;
12122;SDS011;6125;59.628;17.852;2023-03-14T04:56:55;6.13;;;1.67;;
12122;SDS011;6125;59.628;17.852;2023-03-14T04:59:22;4.20;;;1.40;;
12122;SDS011;6125;59.628;17.852;2023-03-14T05:01:49;7.03;;;1.77;;
12122;SDS011;6125;59.628;17.852;2023-03-14T05:04:18;5.37;;;1.50;;
12122;SDS011;6125;59.628;17.852;2023-03-14T05:06:45;6.00;;;1.57;;
12122;SDS011;6125;59.628;17.852;2023-03-14T05:09:12;4.97;;;1.57;;
12122;SDS011;6125;59.628;17.852;2023-03-14T05:11:40;7.33;;;2.27;;
12122;SDS011;6125;59.628;17.852;2023-03-14T05:14:07;5.00;;;1.63;;
12122;SDS011;6125;59.628;17.852;2023-03-14T05:16:34;7.53;;;1.13;;
12122;SDS011;6125;59.628;17.852;2023-03-14T05:19:01;3.83;;;1.37;;
12122;SDS011;6125;59.628;17.852;2023-03-14T05:21:29;5.07;;;1.10;;
12122;SDS011;6125;59.628;17.852;2023-03-14T05:23:56;3.17;;;1.17;;
12122;SDS011;6125;59.628;17.852;2023-03-14T05:26:23;3.27;;;1.63;;
12122;SDS011;6125;59.628;17.852;2023-03-14T05:28:50;5.10;;;1.30;;
12122;SDS011;6125;59.628;17.852;2023-03-14T05:31:17;3.27;;;1.43;;
12122;SDS011;6125;59.628;17.852;2023-03-14T05:33:44;3.27;;;1.27;;
12122;SDS011;6125;59.628;17.852;2023-03-14T05:36:11;2.53;;;1.40;;
12122;SDS011;6125;59.628;17.852;2023-03-14T05:38:40;3.63;;;0.93;;
12122;SDS011;6125;59.628;17.852;2023-03-14T05:41:07;3.37;;;1.40;;
12122;SDS011;6125;59.628;17.852;2023-03-14T05:43:34;6.17;;;1.50;;
12122;SDS011;6125;59.628;17.852;2023-03-14T05:46:01;3.47;;;1.13;;
12122;SDS011;6125;59.628;17.852;2023-03-14T05:48:28;4.10;;;1.20;;
12122;SDS011;6125;59.628;17.852;2023-03-14T05:50:55;4.50;;;1.30;;
12122;SDS011;6125;59.628;17.852;2023-03-14T05:53:24;2.20;;;0.93;;
12122;SDS011;6125;59.628;17.852;2023-03-14T05:55:53;5.77;;;1.30;;
12122;SDS011;6125;59.628;17.852;2023-03-14T05:58:20;2.57;;;1.10;;
12122;SDS011;6125;59.628;17.852;2023-03-14T06:00:47;4.33;;;1.03;;
12122;SDS011;6125;59.628;17.852;2023-03-14T06:03:16;3.87;;;1.20;;
12122;SDS011;6125;59.628;17.852;2023-03-14T06:05:43;1.93;;;0.87;;
12122;SDS011;6125;59.628;17.852;2023-03-14T06:08:10;2.70;;;1.10;;
12122;SDS011;6125;59.628;17.852;2023-03-14T06:10:37;2.47;;;1.00;;
12122;SDS011;6125;59.628;17.852;2023-03-14T06:13:06;0.90;;;0.90;;
12122;SDS011;6125;59.628;17.852;2023-03-14T06:15:33;0.97;;;0.90;;
12122;SDS011;6125;59.628;17.852;2023-03-14T06:18:01;0.90;;;0.53;;
12122;SDS011;6125;59.628;17.852;2023-03-14T06:20:28;1.07;;;0.70;;
12122;SDS011;6125;59.628;17.852;2023-03-14T06:22:55;1.23;;;0.80;;
12122;SDS011;6125;59.628;17.852;2023-03-14T06:25:22;0.97;;;0.87;;
12122;SDS011;6125;59.628;17.852;2023-03-14T06:27:49;1.30;;;0.60;;
12122;SDS011;6125;59.628;17.852;2023-03-14T06:30:18;0.60;;;0.60;;
12122;SDS011;6125;59.628;17.852;2023-03-14T06:32:45;0.73;;;0.50;;
12122;SDS011;6125;59.628;17.852;2023-03-14T06:35:12;1.50;;;0.80;;
12122;SDS011;6125;59.628;17.852;2023-03-14T06:37:39;1.23;;;0.47;;
12122;SDS011;6125;59.628;17.852;2023-03-14T06:40:07;0.70;;;0.70;;
12122;SDS011;6125;59.628;17.852;2023-03-14T06:42:42;1.17;;;0.67;;
12122;SDS011;6125;59.628;17.852;2023-03-14T06:45:10;0.67;;;0.67;;
12122;SDS011;6125;59.628;17.852;2023-03-14T06:47:38;0.83;;;0.60;;
12122;SDS011;6125;59.628;17.852;2023-03-14T06:50:06;0.40;;;0.40;;
12122;SDS011;6125;59.628;17.852;2023-03-14T06:52:35;0.87;;;0.60;;
12122;SDS011;6125;59.628;17.852;2023-03-14T06:55:02;0.40;;;0.40;;
12122;SDS011;6125;59.628;17.852;2023-03-14T06:57:30;0.77;;;0.70;;
12122;SDS011;6125;59.628;17.852;2023-03-14T06:59:57;1.20;;;0.80;;
12122;SDS011;6125;59.628;17.852;2023-03-14T07:02:24;1.00;;;0.70;;
12122;SDS011;6125;59.628;17.852;2023-03-14T07:04:52;0.93;;;0.60;;
12122;SDS011;6125;59.628;17.852;2023-03-14T07:07:19;1.67;;;0.57;;
12122;SDS011;6125;59.628;17.852;2023-03-14T07:09:46;1.00;;;0.60;;
12122;SDS011;6125;59.628;17.852;2023-03-14T07:12:13;1.90;;;0.50;;
12122;SDS011;6125;59.628;17.852;2023-03-14T07:14:40;0.33;;;0.33;;
12122;SDS011;6125;59.628;17.852;2023-03-14T07:17:07;5.73;;;0.93;;
12122;SDS011;6125;59.628;17.852;2023-03-14T07:19:34;0.93;;;0.80;;
12122;SDS011;6125;59.628;17.852;2023-03-14T07:22:04;2.07;;;0.73;;
12122;SDS011;6125;59.628;17.852;2023-03-14T07:24:31;0.70;;;0.70;;
12122;SDS011;6125;59.628;17.852;2023-03-14T07:26:58;2.00;;;0.70;;
12122;SDS011;6125;59.628;17.852;2023-03-14T07:29:25;0.57;;;0.40;;
12122;SDS011;6125;59.628;17.852;2023-03-14T07:31:52;1.17;;;0.73;;
12122;SDS011;6125;59.628;17.852;2023-03-14T07:34:19;0.50;;;0.50;;
12122;SDS011;6125;59.628;17.852;2023-03-14T07:36:46;0.73;;;0.63;;
12122;SDS011;6125;59.628;17.852;2023-03-14T07:39:15;0.50;;;0.50;;
12122;SDS011;6125;59.628;17.852;2023-03-14T07:41:42;0.70;;;0.70;;
12122;SDS011;6125;59.628;17.852;2023-03-14T07:44:09;0.90;;;0.80;;
12122;SDS011;6125;59.628;17.852;2023-03-14T07:46:36;3.83;;;1.00;;
12122;SDS011;6125;59.628;17.852;2023-03-14T07:49:03;1.83;;;0.70;;
12122;SDS011;6125;59.628;17.852;2023-03-14T07:51:30;0.53;;;0.53;;
12122;SDS011;6125;59.628;17.852;2023-03-14T07:53:57;0.60;;;0.60;;
12122;SDS011;6125;59.628;17.852;2023-03-14T07:56:25;0.60;;;0.60;;
12122;SDS011;6125;59.628;17.852;2023-03-14T07:58:52;1.47;;;0.67;;
12122;SDS011;6125;59.628;17.852;2023-03-14T08:01:19;0.70;;;0.60;;
12122;SDS011;6125;59.628;17.852;2023-03-14T08:03:46;0.63;;;0.63;;
12122;SDS011;6125;59.628;17.852;2023-03-14T08:06:13;0.60;;;0.60;;
12122;SDS011;6125;59.628;17.852;2023-03-14T08:08:40;0.57;;;0.57;;
12122;SDS011;6125;59.628;17.852;2023-03-14T08:11:07;0.50;;;0.50;;
12122;SDS011;6125;59.628;17.852;2023-03-14T08:13:36;0.47;;;0.47;;
12122;SDS011;6125;59.628;17.852;2023-03-14T08:16:04;0.97;;;0.97;;
12122;SDS011;6125;59.628;17.852;2023-03-14T08:18:32;0.70;;;0.70;;
12122;SDS011;6125;59.628;17.852;2023-03-14T08:20:59;0.50;;;0.50;;
12122;SDS011;6125;59.628;17.852;2023-03-14T08:23:26;1.90;;;0.50;;
12122;SDS011;6125;59.628;17.852;2023-03-14T08:25:53;0.70;;;0.70;;
12122;SDS011;6125;59.628;17.852;2023-03-14T08:28:20;0.60;;;0.60;;
12122;SDS011;6125;59.628;17.852;2023-03-14T08:30:48;0.57;;;0.57;;
12122;SDS011;6125;59.628;17.852;2023-03-14T08:33:15;0.70;;;0.70;;
12122;SDS011;6125;59.628;17.852;2023-03-14T08:35:42;1.50;;;0.63;;
12122;SDS011;6125;59.628;17.852;2023-03-14T08:38:09;0.60;;;0.57;;
12122;SDS011;6125;59.628;17.852;2023-03-14T08:40:36;0.60;;;0.60;;
12122;SDS011;6125;59.628;17.852;2023-03-14T08:43:03;0.47;;;0.47;;
12122;SDS011;6125;59.628;17.852;2023-03-14T08:45:30;0.63;;;0.53;;
12122;SDS011;6125;59.628;17.852;2023-03-14T08:47:59;0.53;;;0.53;;
12122;SDS011;6125;59.628;17.852;2023-03-14T08:50:26;0.50;;;0.50;;
12122;SDS011;6125;59.628;17.852;2023-03-14T08:52:53;0.70;;;0.70;;
12122;SDS011;6125;59.628;17.852;2023-03-14T08:55:20;0.50;;;0.50;;
12122;SDS011;6125;59.628;17.852;2023-03-14T08:57:47;0.70;;;0.70;;
12122;SDS011;6125;59.628;17.852;2023-03-14T09:00:14;0.50;;;0.50;;
12122;SDS011;6125;59.628;17.852;2023-03-14T09:02:43;0.20;;;0.20;;
12122;SDS011;6125;59.628;17.852;2023-03-14T09:05:11;0.30;;;0.30;;
12122;SDS011;6125;59.628;17.852;2023-03-14T09:07:39;0.83;;;0.70;;
12122;SDS011;6125;59.628;17.852;2023-03-14T09:10:07;0.70;;;0.60;;
12122;SDS011;6125;59.628;17.852;2023-03-14T09:12:35;0.40;;;0.40;;
12122;SDS011;6125;59.628;17.852;2023-03-14T09:15:02;1.00;;;0.90;;
12122;SDS011;6125;59.628;17.852;2023-03-14T09:17:30;1.47;;;1.20;;
12122;SDS011;6125;59.628;17.852;2023-03-14T09:19:57;7.13;;;5.03;;
12122;SDS011;6125;59.628;17.852;2023-03-14T09:22:25;3.10;;;2.13;;
12122;SDS011;6125;59.628;17.852;2023-03-14T09:24:52;3.13;;;1.00;;
12122;SDS011;6125;59.628;17.852;2023-03-14T09:27:19;0.80;;;0.80;;
12122;SDS011;6125;59.628;17.852;2023-03-14T09:29:46;0.43;;;0.43;;
12122;SDS011;6125;59.628;17.852;2023-03-14T09:32:13;0.60;;;0.60;;
12122;SDS011;6125;59.628;17.852;2023-03-14T09:34:40;0.57;;;0.50;;
12122;SDS011;6125;59.628;17.852;2023-03-14T09:37:07;0.70;;;0.60;;
12122;SDS011;6125;59.628;17.852;2023-03-14T09:39:36;0.43;;;0.43;;
12122;SDS011;6125;59.628;17.852;2023-03-14T09:42:04;0.50;;;0.50;;
12122;SDS011;6125;59.628;17.852;2023-03-14T09:44:34;0.50;;;0.50;;
12122;SDS011;6125;59.628;17.852;2023-03-14T09:47:06;0.50;;;0.50;;
12122;SDS011;6125;59.628;17.852;2023-03-14T09:49:37;0.93;;;0.60;;
12122;SDS011;6125;59.628;17.852;2023-03-14T09:52:06;0.70;;;0.70;;
12122;SDS011;6125;59.628;17.852;2023-03-14T09:54:42;0.73;;;0.60;;
12122;SDS011;6125;59.628;17.852;2023-03-14T09:57:12;0.50;;;0.50;;
12122;SDS011;6125;59.628;17.852;2023-03-14T09:59:41;1.10;;;0.70;;
12122;SDS011;6125;59.628;17.852;2023-03-14T10:02:13;0.50;;;0.50;;
12122;SDS011;6125;59.628;17.852;2023-03-14T10:04:43;0.50;;;0.50;;
12122;SDS011;6125;59.628;17.852;2023-03-14T10:07:12;0.70;;;0.70;;
12122;SDS011;6125;59.628;17.852;2023-03-14T10:09:44;0.67;;;0.67;;
12122;SDS011;6125;59.628;17.852;2023-03-14T10:12:13;0.50;;;0.50;;
12122;SDS011;6125;59.628;17.852;2023-03-14T10:14:45;0.50;;;0.50;;
12122;SDS011;6125;59.628;17.852;2023-03-14T10:17:14;0.50;;;0.50;;
12122;SDS011;6125;59.628;17.852;2023-03-14T10:19:53;0.60;;;0.60;;
12122;SDS011;6125;59.628;17.852;2023-03-14T10:22:22;0.70;;;0.70;;
12122;SDS011;6125;59.628;17.852;2023-03-14T10:24:53;0.53;;;0.53;;
12122;SDS011;6125;59.628;17.852;2023-03-14T10:27:27;0.70;;;0.70;;
12122;SDS011;6125;59.628;17.852;2023-03-14T10:29:56;0.50;;;0.50;;
12122;SDS011;6125;59.628;17.852;2023-03-14T10:32:29;0.60;;;0.60;;
12122;SDS011;6125;59.628;17.852;2023-03-14T10:35:07;0.63;;;0.63;;
12122;SDS011;6125;59.628;17.852;2023-03-14T10:37:53;0.70;;;0.60;;
12122;SDS011;6125;59.628;17.852;2023-03-14T10:40:26;1.97;;;0.77;;
12122;SDS011;6125;59.628;17.852;2023-03-14T10:42:57;1.43;;;1.00;;
12122;SDS011;6125;59.628;17.852;2023-03-14T10:45:29;1.20;;;0.90;;
12122;SDS011;6125;59.628;17.852;2023-03-14T10:47:59;1.00;;;0.73;;
12122;SDS011;6125;59.628;17.852;2023-03-14T10:50:32;0.80;;;0.80;;
12122;SDS011;6125;59.628;17.852;2023-03-14T10:53:00;0.70;;;0.70;;
12122;SDS011;6125;59.628;17.852;2023-03-14T10:55:40;0.60;;;0.60;;
12122;SDS011;6125;59.628;17.852;2023-03-14T10:58:21;0.60;;;0.50;;
12122;SDS011;6125;59.628;17.852;2023-03-14T11:00:51;0.50;;;0.50;;
12122;SDS011;6125;59.628;17.852;2023-03-14T11:03:24;0.50;;;0.50;;
12122;SDS011;6125;59.628;17.852;2023-03-14T11:05:56;0.60;;;0.60;;
12122;SDS011;6125;59.628;17.852;2023-03-14T11:08:27;1.07;;;0.50;;
12122;SDS011;6125;59.628;17.852;2023-03-14T11:11:06;0.50;;;0.50;;
12122;SDS011;6125;59.628;17.852;2023-03-14T11:13:42;0.40;;;0.40;;
12122;SDS011;6125;59.628;17.852;2023-03-14T11:16:19;0.60;;;0.60;;
12122;SDS011;6125;59.628;17.852;2023-03-14T11:19:01;1.90;;;0.77;;
12122;SDS011;6125;59.628;17.852;2023-03-14T11:21:37;0.53;;;0.53;;
12122;SDS011;6125;59.628;17.852;2023-03-14T11:24:15;0.50;;;0.50;;
12122;SDS011;6125;59.628;17.852;2023-03-14T11:26:54;0.50;;;0.50;;
12122;SDS011;6125;59.628;17.852;2023-03-14T11:29:28;0.30;;;0.30;;
12122;SDS011;6125;59.628;17.852;2023-03-14T11:32:07;0.50;;;0.50;;
12122;SDS011;6125;59.628;17.852;2023-03-14T11:34:41;0.90;;;0.90;;
12122;SDS011;6125;59.628;17.852;2023-03-14T11:37:16;0.80;;;0.60;;
12122;SDS011;6125;59.628;17.852;2023-03-14T11:39:51;0.50;;;0.50;;
12122;SDS011;6125;59.628;17.852;2023-03-14T11:42:27;0.30;;;0.30;;
12122;SDS011;6125;59.628;17.852;2023-03-14T11:44:57;0.60;;;0.60;;
12122;SDS011;6125;59.628;17.852;2023-03-14T11:47:26;0.50;;;0.50;;
12122;SDS011;6125;59.628;17.852;2023-03-14T11:49:58;0.40;;;0.40;;
12122;SDS011;6125;59.628;17.852;2023-03-14T11:52:29;0.40;;;0.40;;
12122;SDS011;6125;59.628;17.852;2023-03-14T11:55:00;0.60;;;0.60;;
12122;SDS011;6125;59.628;17.852;2023-03-14T11:57:33;1.60;;;0.60;;
12122;SDS011;6125;59.628;17.852;2023-03-14T12:00:02;0.60;;;0.60;;
12122;SDS011;6125;59.628;17.852;2023-03-14T12:02:41;0.40;;;0.40;;
12122;SDS011;6125;59.628;17.852;2023-03-14T12:08:16;0.40;;;0.40;;
12122;SDS011;6125;59.628;17.852;2023-03-14T12:11:04;0.80;;;0.60;;
12122;SDS011;6125;59.628;17.852;2023-03-14T12:13:38;0.47;;;0.47;;
12122;SDS011;6125;59.628;17.852;2023-03-14T12:16:06;0.67;;;0.67;;
12122;SDS011;6125;59.628;17.852;2023-03-14T12:18:46;0.50;;;0.50;;
12122;SDS011;6125;59.628;17.852;2023-03-14T12:21:13;0.67;;;0.67;;
12122;SDS011;6125;59.628;17.852;2023-03-14T12:23:41;0.47;;;0.47;;
12122;SDS011;6125;59.628;17.852;2023-03-14T12:26:14;0.40;;;0.40;;
12122;SDS011;6125;59.628;17.852;2023-03-14T12:28:48;0.40;;;0.40;;
12122;SDS011;6125;59.628;17.852;2023-03-14T12:34:03;0.53;;;0.43;;
12122;SDS011;6125;59.628;17.852;2023-03-14T12:36:54;0.40;;;0.40;;
12122;SDS011;6125;59.628;17.852;2023-03-14T12:39:31;0.60;;;0.60;;
12122;SDS011;6125;59.628;17.852;2023-03-14T12:42:04;0.50;;;0.50;;
12122;SDS011;6125;59.628;17.852;2023-03-14T12:44:40;0.53;;;0.53;;
12122;SDS011;6125;59.628;17.852;2023-03-14T12:50:21;0.60;;;0.60;;
12122;SDS011;6125;59.628;17.852;2023-03-14T12:56:07;0.60;;;0.60;;
12122;SDS011;6125;59.628;17.852;2023-03-14T13:01:47;0.70;;;0.70;;
12122;SDS011;6125;59.628;17.852;2023-03-14T13:04:25;0.80;;;0.80;;
12122;SDS011;6125;59.628;17.852;2023-03-14T13:06:55;0.70;;;0.70;;
12122;SDS011;6125;59.628;17.852;2023-03-14T13:12:25;0.63;;;0.63;;
12122;SDS011;6125;59.628;17.852;2023-03-14T13:14:57;0.60;;;0.60;;
12122;SDS011;6125;59.628;17.852;2023-03-14T13:17:30;0.60;;;0.60;;
12122;SDS011;6125;59.628;17.852;2023-03-14T13:20:00;0.50;;;0.50;;
12122;SDS011;6125;59.628;17.852;2023-03-14T13:22:32;0.70;;;0.70;;
12122;SDS011;6125;59.628;17.852;2023-03-14T13:25:04;1.10;;;1.00;;
12122;SDS011;6125;59.628;17.852;2023-03-14T13:27:34;0.60;;;0.60;;
12122;SDS011;6125;59.628;17.852;2023-03-14T13:30:05;0.70;;;0.70;;
12122;SDS011;6125;59.628;17.852;2023-03-14T13:32:42;0.77;;;0.77;;
12122;SDS011;6125;59.628;17.852;2023-03-14T13:35:16;1.83;;;0.80;;
12122;SDS011;6125;59.628;17.852;2023-03-14T13:37:44;0.80;;;0.80;;
12122;SDS011;6125;59.628;17.852;2023-03-14T13:40:19;0.87;;;0.70;;
12122;SDS011;6125;59.628;17.852;2023-03-14T13:42:59;0.73;;;0.73;;
12122;SDS011;6125;59.628;17.852;2023-03-14T13:45:29;0.90;;;0.90;;
12122;SDS011;6125;59.628;17.852;2023-03-14T13:47:57;1.20;;;0.80;;
12122;SDS011;6125;59.628;17.852;2023-03-14T13:50:24;0.70;;;0.70;;
12122;SDS011;6125;59.628;17.852;2023-03-14T13:52:55;0.83;;;0.80;;
12122;SDS011;6125;59.628;17.852;2023-03-14T13:55:23;0.70;;;0.70;;
12122;SDS011;6125;59.628;17.852;2023-03-14T13:57:51;0.90;;;0.80;;
12122;SDS011;6125;59.628;17.852;2023-03-14T14:00:20;0.90;;;0.80;;
12122;SDS011;6125;59.628;17.852;2023-03-14T14:02:52;0.93;;;0.93;;
12122;SDS011;6125;59.628;17.852;2023-03-14T14:05:21;3.40;;;2.77;;
12122;SDS011;6125;59.628;17.852;2023-03-14T14:07:49;1.77;;;1.47;;
12122;SDS011;6125;59.628;17.852;2023-03-14T14:10:17;1.13;;;0.93;;
12122;SDS011;6125;59.628;17.852;2023-03-14T14:12:46;0.80;;;0.80;;
12122;SDS011;6125;59.628;17.852;2023-03-14T14:15:17;0.73;;;0.73;;
12122;SDS011;6125;59.628;17.852;2023-03-14T14:17:47;0.80;;;0.80;;
12122;SDS011;6125;59.628;17.852;2023-03-14T14:20:22;0.73;;;0.73;;
12122;SDS011;6125;59.628;17.852;2023-03-14T14:22:56;1.23;;;1.10;;
12122;SDS011;6125;59.628;17.852;2023-03-14T14:25:25;1.90;;;0.90;;
12122;SDS011;6125;59.628;17.852;2023-03-14T14:27:52;1.07;;;1.00;;
12122;SDS011;6125;59.628;17.852;2023-03-14T14:30:27;1.33;;;1.10;;
12122;SDS011;6125;59.628;17.852;2023-03-14T14:35:50;1.20;;;1.10;;
12122;SDS011;6125;59.628;17.852;2023-03-14T14:38:20;3.97;;;2.10;;
12122;SDS011;6125;59.628;17.852;2023-03-14T14:40:48;1.13;;;1.03;;
12122;SDS011;6125;59.628;17.852;2023-03-14T14:43:18;1.00;;;1.00;;
12122;SDS011;6125;59.628;17.852;2023-03-14T14:45:49;1.00;;;1.00;;
12122;SDS011;6125;59.628;17.852;2023-03-14T14:48:19;2.07;;;1.10;;
12122;SDS011;6125;59.628;17.852;2023-03-14T14:50:51;1.73;;;1.23;;
12122;SDS011;6125;59.628;17.852;2023-03-14T14:53:23;1.40;;;1.30;;
12122;SDS011;6125;59.628;17.852;2023-03-14T14:55:54;1.87;;;1.07;;
12122;SDS011;6125;59.628;17.852;2023-03-14T14:58:23;1.10;;;1.00;;
12122;SDS011;6125;59.628;17.852;2023-03-14T15:00:53;1.00;;;1.00;;
12122;SDS011;6125;59.628;17.852;2023-03-14T15:03:24;0.73;;;0.73;;
12122;SDS011;6125;59.628;17.852;2023-03-14T15:05:55;1.30;;;1.03;;
12122;SDS011;6125;59.628;17.852;2023-03-14T15:08:23;1.17;;;1.07;;
12122;SDS011;6125;59.628;17.852;2023-03-14T15:10:51;3.20;;;1.70;;
12122;SDS011;6125;59.628;17.852;2023-03-14T15:13:18;1.13;;;1.03;;
12122;SDS011;6125;59.628;17.852;2023-03-14T15:15:45;0.70;;;0.70;;
12122;SDS011;6125;59.628;17.852;2023-03-14T15:18:14;0.93;;;0.90;;
12122;SDS011;6125;59.628;17.852;2023-03-14T15:20:42;0.90;;;0.90;;
12122;SDS011;6125;59.628;17.852;2023-03-14T15:23:12;1.93;;;1.47;;
12122;SDS011;6125;59.628;17.852;2023-03-14T15:25:40;3.13;;;1.63;;